Atlantic, IA

3:41 PM CDT on September 17, 2014 (GMT -0500)
16th St and Olive | Change Station
CLOSE
Current Station
Personal Weather Station
Location: Atlantic, IA
Elevation: 1270 ft
Nearby Weather Stations

Elev 1270 ft 41.39 °N, 95.00 °W | Updated 8 seconds ago

Scattered Clouds
Scattered Clouds
77.7 °F
Feels Like 79 °F
N
2.0
Wind Variable Wind from North
Gusts 2.0 mph

Today
High -- | Low -- °F
--% Chance of Precip.
Yesterday
High -- | Low -- °F
Precip. -- in
7:02 AM 7:25 PM
Waning Crescent, 33% visible
Pressure 29.91 in
Visibility 10.0 miles
Clouds Scattered Clouds 4700 ft
Heat Index 79 °F
Dew Point 59 °F
Humidity 52%
Rainfall 0.00 in
Snow Depth Not available.
UV 5 out of 12
Pollen 5.80 out of 12
Air Quality Not available.
Flu Activity Not available.
METAR KAIO 172015Z AUTO 00000KT 10SM SCT047 24/15 A2991 RMK AO2

More Conditions Fewer Conditions

Pressure 29.91 in
Visibility 10.0 miles
Clouds Scattered Clouds 4700 ft
Heat Index 79 °F
Dew Point 59 °F
Humidity 52%
Rainfall 0.00 in
Snow Depth Not available.
UV 5 out of 12
Pollen 5.80 out of 12
Air Quality Not available.
Flu Activity Not available.
METAR KAIO 172015Z AUTO 00000KT 10SM SCT047 24/15 A2991 RMK AO2

More Conditions Fewer Conditions

10-Day Weather Forecast

Almanac

Astronomy

Sep. 17, 2014 Rise Set
Actual Time 7:02 AM CDT 7:25 PM CDT
Civil Twilight 6:34 AM CDT 7:53 PM CDT
Nautical Twilight 6:02 AM CDT 8:26 PM CDT
Astronomical Twilight 5:28 AM CDT 8:59 PM CDT
Moon 1:00 AM CDT 3:39 PM CDT
Length of Visible Light 13h 18m
Length of Day
12h 23m
Tomorrow will be 2m 44s shorter.
Waning Crescent, 33% of the Moon is Illuminated
Today
Waning Crescent
Sep 24
New
Oct 1
First Quarter
Oct 8
Full
Oct 15
Last Quarter

Today's Extremes

State Highs State Lows

Community

WunderPhotos

Upload Photos

1,754,161 photos uploaded!

WunderBlogs® & News

Nearby

Snow Depth

Station Depth Elevation
No new snow has been reported.

Earthquake Activity

City Distance Mag. Time & Date
No recent earthquake activity has been reported nearby.
Minimum magnitude displayed is 2.5.

Coastal Water Temperatures

Place Temperature
No Stations Reporting

Nearby Weather Stations